createdAt,value
2022-08-18T00:01:49.215Z,5.82
2022-08-18T00:04:36.276Z,6.20
2022-08-18T00:09:41.240Z,5.93
2022-08-18T00:12:15.069Z,5.80
2022-08-18T00:14:42.540Z,6.38
2022-08-18T00:17:09.627Z,6.20
2022-08-18T00:19:45.712Z,7.20
2022-08-18T00:22:18.527Z,5.97
2022-08-18T00:24:49.269Z,5.78
2022-08-18T00:27:22.860Z,5.78
2022-08-18T00:29:52.676Z,6.10
2022-08-18T00:32:23.937Z,6.47
2022-08-18T00:34:51.715Z,5.80
2022-08-18T00:37:18.815Z,5.68
2022-08-18T00:39:46.152Z,6.25
2022-08-18T00:42:29.801Z,6.43
2022-08-18T00:45:02.156Z,5.72
2022-08-18T00:47:33.135Z,5.88
2022-08-18T00:50:15.400Z,5.85
2022-08-18T00:52:47.787Z,5.78
2022-08-18T00:55:18.339Z,6.50
2022-08-18T00:57:48.473Z,6.28
2022-08-18T01:00:15.829Z,5.65
2022-08-18T01:02:51.656Z,5.80
2022-08-18T01:05:27.463Z,5.60
2022-08-18T01:07:54.718Z,5.75
2022-08-18T01:10:23.481Z,5.50
2022-08-18T01:12:57.019Z,5.50
2022-08-18T01:15:28.914Z,5.72
2022-08-18T01:18:21.830Z,5.68
2022-08-18T01:21:10.036Z,5.80
2022-08-18T01:23:37.599Z,6.43
2022-08-18T01:26:04.714Z,6.03
2022-08-18T01:28:34.799Z,5.63
2022-08-18T01:31:03.747Z,5.55
2022-08-18T01:33:34.062Z,5.85
2022-08-18T01:36:16.826Z,5.80
2022-08-18T01:38:46.600Z,5.93
2022-08-18T01:41:26.293Z,5.97
2022-08-18T01:43:56.390Z,6.20
2022-08-18T01:46:23.710Z,6.13
2022-08-18T01:48:51.725Z,5.95
2022-08-18T01:51:20.600Z,6.15
2022-08-18T01:54:06.111Z,5.22
2022-08-18T01:56:33.234Z,5.88
2022-08-18T01:59:00.158Z,5.82
2022-08-18T02:01:36.526Z,5.50
2022-08-18T02:04:33.283Z,5.72
2022-08-18T02:06:56.327Z,6.60
2022-08-18T02:09:24.561Z,5.80
2022-08-18T02:11:55.742Z,5.68
2022-08-18T02:14:25.283Z,6.38
2022-08-18T02:17:01.910Z,5.72
2022-08-18T02:19:38.716Z,5.95
2022-08-18T02:22:07.877Z,6.05
2022-08-18T02:24:34.863Z,5.80
2022-08-18T02:27:01.846Z,5.80
2022-08-18T02:29:29.209Z,6.40
2022-08-18T02:31:56.316Z,5.85
2022-08-18T02:34:23.831Z,5.55
2022-08-18T02:36:51.387Z,5.90
2022-08-18T02:39:18.312Z,6.10
2022-08-18T02:41:45.327Z,5.93
2022-08-18T02:44:12.413Z,5.50
2022-08-18T02:46:39.443Z,5.88
2022-08-18T02:49:08.229Z,5.72
2022-08-18T02:51:36.076Z,6.03
2022-08-18T02:54:03.788Z,6.72
2022-08-18T02:56:41.679Z,5.60
2022-08-18T02:59:15.556Z,5.72
2022-08-18T03:01:46.547Z,6.20
2022-08-18T03:04:16.459Z,5.75
2022-08-18T03:06:45.349Z,6.20
2022-08-18T03:09:15.492Z,6.10
2022-08-18T03:11:43.466Z,5.93
2022-08-18T03:14:11.842Z,5.90
2022-08-18T03:16:53.216Z,5.80
2022-08-18T03:19:26.139Z,6.15
2022-08-18T03:21:55.122Z,5.78
2022-08-18T03:24:26.699Z,6.53
2022-08-18T03:26:56.913Z,5.60
2022-08-18T03:29:27.972Z,5.53
2022-08-18T03:31:59.228Z,5.45
2022-08-18T03:34:26.241Z,5.38
2022-08-18T03:36:53.857Z,6.25
2022-08-18T03:39:23.711Z,5.80
2022-08-18T03:41:59.902Z,5.53
2022-08-18T03:44:33.763Z,5.80
2022-08-18T03:47:03.964Z,5.32
2022-08-18T03:49:33.911Z,6.05
2022-08-18T03:52:01.568Z,5.82
2022-08-18T03:54:32.288Z,5.22
2022-08-18T03:57:00.507Z,5.38
2022-08-18T03:59:30.765Z,5.70
2022-08-18T04:01:58.255Z,5.95
2022-08-18T04:04:28.019Z,4.95
2022-08-18T04:06:58.878Z,5.15
2022-08-18T04:09:28.653Z,5.07
2022-08-18T04:11:57.032Z,5.50
2022-08-18T04:14:26.231Z,5.45
2022-08-18T04:16:53.502Z,5.55
2022-08-18T04:19:23.113Z,5.85
2022-08-18T04:21:57.064Z,5.70
2022-08-18T04:24:24.301Z,5.28
2022-08-18T04:26:52.146Z,5.55
2022-08-18T04:29:21.472Z,5.75
2022-08-18T04:31:50.538Z,5.65
2022-08-18T04:34:20.575Z,6.07
2022-08-18T04:36:48.771Z,5.28
2022-08-18T04:39:15.846Z,6.13
2022-08-18T04:41:44.192Z,5.53
2022-08-18T04:44:12.686Z,5.85
2022-08-18T04:46:54.067Z,6.22
2022-08-18T04:49:26.195Z,5.60
2022-08-18T04:52:34.331Z,5.80
2022-08-18T04:55:03.049Z,5.55
2022-08-18T04:57:34.143Z,5.60
2022-08-18T05:00:04.239Z,5.90
2022-08-18T05:02:33.194Z,6.63
2022-08-18T05:05:03.553Z,6.38
2022-08-18T05:07:30.862Z,6.30
2022-08-18T05:09:57.816Z,6.30
2022-08-18T05:12:26.425Z,6.22
2022-08-18T05:14:57.140Z,6.15
2022-08-18T05:17:30.211Z,7.32
2022-08-18T05:19:59.041Z,6.97
2022-08-18T05:22:28.445Z,6.35
2022-08-18T05:24:58.338Z,6.50
2022-08-18T05:27:25.381Z,6.85
2022-08-18T05:29:52.391Z,6.47
2022-08-18T05:32:40.944Z,6.30
2022-08-18T05:37:54.454Z,6.53
2022-08-18T05:40:25.230Z,6.37
2022-08-18T05:42:52.341Z,7.00
2022-08-18T05:45:20.503Z,6.10
2022-08-18T05:47:47.602Z,6.47
2022-08-18T05:50:18.784Z,6.07
2022-08-18T05:52:57.716Z,5.90
2022-08-18T05:55:52.677Z,5.82
2022-08-18T05:58:42.231Z,5.90
2022-08-18T06:01:18.849Z,6.65
2022-08-18T06:03:54.070Z,5.88
2022-08-18T06:06:25.499Z,6.28
2022-08-18T06:09:17.991Z,6.40
2022-08-18T06:11:45.775Z,6.05
2022-08-18T06:14:13.631Z,6.35
2022-08-18T06:17:25.381Z,6.28
2022-08-18T06:19:52.284Z,6.13
2022-08-18T06:22:53.395Z,5.78
2022-08-18T06:25:34.371Z,5.55
2022-08-18T06:28:16.276Z,6.38
2022-08-18T06:30:59.966Z,5.93
2022-08-18T06:33:45.982Z,5.45
2022-08-18T06:36:14.513Z,5.10
2022-08-18T06:39:42.023Z,5.65
2022-08-18T06:42:31.356Z,5.70
2022-08-18T06:45:01.145Z,5.50
2022-08-18T06:47:33.877Z,5.47
2022-08-18T06:50:08.529Z,5.78
2022-08-18T06:52:39.058Z,4.90
2022-08-18T06:55:11.560Z,5.53
2022-08-18T06:57:52.505Z,5.43
2022-08-18T07:00:19.676Z,5.43
2022-08-18T07:02:58.385Z,5.53
2022-08-18T07:05:31.168Z,5.20
2022-08-18T07:08:10.852Z,5.57
2022-08-18T07:10:41.777Z,4.75
2022-08-18T07:13:14.304Z,4.85
2022-08-18T07:15:41.630Z,5.75
2022-08-18T07:18:14.588Z,4.57
2022-08-18T07:20:48.711Z,3.60
2022-08-18T07:23:27.742Z,4.53
2022-08-18T07:26:15.156Z,3.83
2022-08-18T07:28:49.846Z,4.60
2022-08-18T07:31:40.698Z,4.30
2022-08-18T07:34:17.602Z,3.70
2022-08-18T07:36:50.538Z,4.53
2022-08-18T07:39:25.788Z,4.85
2022-08-18T07:42:07.636Z,4.13
2022-08-18T07:44:55.106Z,4.25
2022-08-18T07:47:54.425Z,4.47
2022-08-18T07:50:57.391Z,3.60
2022-08-18T07:53:54.622Z,3.80
2022-08-18T07:56:44.329Z,3.95
2022-08-18T07:59:16.076Z,3.70
2022-08-18T08:02:00.310Z,3.92
2022-08-18T08:04:32.840Z,4.10
2022-08-18T08:07:35.887Z,4.10
2022-08-18T08:10:12.106Z,4.53
2022-08-18T08:13:10.019Z,4.95
2022-08-18T08:16:13.057Z,4.32
2022-08-18T08:18:45.118Z,3.80
2022-08-18T08:21:18.000Z,3.92
2022-08-18T08:23:53.686Z,4.65
2022-08-18T08:26:27.565Z,4.57
2022-08-18T08:29:06.500Z,3.63
2022-08-18T08:31:52.062Z,3.80
2022-08-18T08:34:31.468Z,3.65
2022-08-18T08:37:02.761Z,4.10
2022-08-18T08:39:47.191Z,3.17
2022-08-18T08:42:33.799Z,4.15
2022-08-18T08:45:23.805Z,3.92
2022-08-18T08:48:09.510Z,3.75
2022-08-18T08:50:45.545Z,4.07
2022-08-18T08:53:30.436Z,3.30
2022-08-18T08:56:03.363Z,3.35
2022-08-18T08:58:48.414Z,3.70
2022-08-18T09:01:42.901Z,4.07
2022-08-18T09:04:31.413Z,3.38
2022-08-18T09:07:41.437Z,3.72
2022-08-18T09:10:26.764Z,4.00
2022-08-18T09:13:15.280Z,3.25
2022-08-18T09:16:12.249Z,3.20
2022-08-18T09:19:05.463Z,3.30
2022-08-18T09:21:45.988Z,3.45
2022-08-18T09:24:51.099Z,3.78
2022-08-18T09:27:31.046Z,3.53
2022-08-18T09:30:02.072Z,3.70
2022-08-18T09:32:29.182Z,3.30
2022-08-18T09:35:05.329Z,3.72
2022-08-18T09:38:12.929Z,3.20
2022-08-18T09:41:24.341Z,3.03
2022-08-18T10:17:39.241Z,4.10
2022-08-18T10:20:23.961Z,3.88
2022-08-18T10:22:56.588Z,3.72
2022-08-18T10:25:46.601Z,3.67
2022-08-18T10:28:55.575Z,3.90
2022-08-18T10:31:27.316Z,3.85
2022-08-18T10:33:54.479Z,3.47
2022-08-18T10:36:40.111Z,3.88
2022-08-18T10:39:16.000Z,4.13
2022-08-18T10:44:47.180Z,3.63
2022-08-18T10:47:33.315Z,3.05
2022-08-18T10:50:07.170Z,3.85
2022-08-18T10:53:40.148Z,3.70
2022-08-18T10:56:26.908Z,3.58
2022-08-18T10:59:16.472Z,3.58
2022-08-18T11:01:50.256Z,3.47
2022-08-18T11:07:43.041Z,4.00
2022-08-18T11:10:32.162Z,4.40
2022-08-18T11:13:32.430Z,3.75
2022-08-18T11:16:18.378Z,3.97
2022-08-18T11:18:55.166Z,3.60
2022-08-18T11:21:33.037Z,4.05
2022-08-18T11:24:24.982Z,4.05
2022-08-18T11:27:02.090Z,3.72
2022-08-18T11:29:39.082Z,3.67
2022-08-18T11:32:24.291Z,3.80
2022-08-18T11:35:16.392Z,4.18
2022-08-18T11:37:53.243Z,3.92
2022-08-18T11:46:29.747Z,3.97
2022-08-18T11:49:01.777Z,4.38
2022-08-18T11:51:33.626Z,3.60
2022-08-18T11:54:15.664Z,4.32
2022-08-18T11:56:42.658Z,4.15
2022-08-18T11:59:25.703Z,4.78
2022-08-18T12:02:21.504Z,3.67
2022-08-18T12:05:08.741Z,4.63
2022-08-18T12:07:57.908Z,4.22
2022-08-18T12:10:28.694Z,5.10
2022-08-18T12:13:00.489Z,4.47
2022-08-18T12:15:29.684Z,4.25
2022-08-18T12:20:59.394Z,4.55
2022-08-18T12:23:39.163Z,4.50
2022-08-18T12:29:03.334Z,3.80
2022-08-18T12:31:42.755Z,4.47
2022-08-18T12:34:25.137Z,5.10
2022-08-18T12:36:57.255Z,5.30
2022-08-18T12:39:25.117Z,4.90
2022-08-18T12:44:39.227Z,4.18
2022-08-18T12:47:12.420Z,5.20
2022-08-18T12:49:40.022Z,4.50
2022-08-18T12:52:08.095Z,4.18
2022-08-18T12:54:55.686Z,4.78
2022-08-18T12:57:33.357Z,3.63
2022-08-18T13:00:16.960Z,4.57
2022-08-18T13:02:45.696Z,4.00
2022-08-18T13:05:12.643Z,4.43
2022-08-18T13:07:39.544Z,3.97
2022-08-18T13:10:07.353Z,4.72
2022-08-18T13:12:48.858Z,4.75
2022-08-18T13:15:16.850Z,4.18
2022-08-18T13:17:46.798Z,3.92
2022-08-18T13:20:17.532Z,4.38
2022-08-18T13:22:44.529Z,3.83
2022-08-18T13:25:32.281Z,4.22
2022-08-18T13:28:02.452Z,4.38
2022-08-18T13:30:32.295Z,4.20
2022-08-18T13:33:02.406Z,4.03
2022-08-18T13:35:38.064Z,4.43
2022-08-18T13:38:15.699Z,4.20
2022-08-18T13:40:50.656Z,4.57
2022-08-18T13:43:23.375Z,4.55
2022-08-18T13:45:53.364Z,4.53
2022-08-18T13:48:24.150Z,4.32
2022-08-18T13:50:55.725Z,4.20
2022-08-18T13:53:24.658Z,4.35
2022-08-18T13:55:53.184Z,4.65
2022-08-18T13:58:21.268Z,4.47
2022-08-18T14:01:05.726Z,4.38
2022-08-18T14:03:47.201Z,4.32
2022-08-18T14:06:15.940Z,5.05
2022-08-18T14:08:50.885Z,4.63
2022-08-18T14:11:18.854Z,4.53
2022-08-18T14:13:45.875Z,4.90
2022-08-18T14:16:18.449Z,4.45
2022-08-18T14:19:09.531Z,4.15
2022-08-18T14:22:01.649Z,4.25
2022-08-18T14:24:49.502Z,5.13
2022-08-18T14:27:24.735Z,4.32
2022-08-18T14:29:55.111Z,4.68
2022-08-18T14:32:29.068Z,4.95
2022-08-18T14:35:00.236Z,4.22
2022-08-18T14:37:29.829Z,4.40
2022-08-18T14:39:58.449Z,4.80
2022-08-18T14:42:32.985Z,4.30
2022-08-18T14:45:26.460Z,4.57
2022-08-18T14:47:58.778Z,4.95
2022-08-18T14:50:26.925Z,4.10
2022-08-18T14:52:54.010Z,4.25
2022-08-18T14:55:21.263Z,4.50
2022-08-18T14:57:50.491Z,5.35
2022-08-18T15:00:21.055Z,5.45
2022-08-18T15:02:50.405Z,5.15
2022-08-18T15:05:19.833Z,6.00
2022-08-18T15:07:52.139Z,5.53
2022-08-18T15:10:23.649Z,5.68
2022-08-18T15:12:55.530Z,5.30
2022-08-18T15:15:22.915Z,5.25
2022-08-18T15:17:52.951Z,5.13
2022-08-18T15:20:28.822Z,4.80
2022-08-18T15:23:25.051Z,5.55
2022-08-18T15:25:56.580Z,5.70
2022-08-18T15:28:26.446Z,5.68
2022-08-18T15:33:40.343Z,5.10
2022-08-18T15:36:10.302Z,5.20
2022-08-18T15:38:43.108Z,5.90
2022-08-18T15:41:10.259Z,5.75
2022-08-18T15:43:45.981Z,5.22
2022-08-18T15:46:16.632Z,5.68
2022-08-18T15:48:43.981Z,6.05
2022-08-18T15:51:12.042Z,5.90
2022-08-18T15:53:40.353Z,5.20
2022-08-18T15:56:20.679Z,5.25
2022-08-18T16:01:29.878Z,5.07
2022-08-18T16:04:01.366Z,5.63
2022-08-18T16:06:32.387Z,6.15
2022-08-18T16:09:00.991Z,5.45
2022-08-18T16:11:29.309Z,5.70
2022-08-18T16:14:00.920Z,5.80
2022-08-18T16:16:29.047Z,6.25
2022-08-18T16:19:05.669Z,6.18
2022-08-18T16:21:32.892Z,6.38
2022-08-18T16:23:59.855Z,5.63
2022-08-18T16:26:26.828Z,6.22
2022-08-18T16:28:53.808Z,6.07
2022-08-18T16:31:26.224Z,5.82
2022-08-18T16:33:55.531Z,5.93
2022-08-18T16:36:26.640Z,6.03
2022-08-18T16:38:58.163Z,5.95
2022-08-18T16:41:26.618Z,5.97
2022-08-18T16:43:53.935Z,6.72
2022-08-18T16:46:25.378Z,6.00
2022-08-18T16:48:55.162Z,6.32
2022-08-18T16:51:25.416Z,6.13
2022-08-18T16:53:53.607Z,5.75
2022-08-18T16:56:23.744Z,6.00
2022-08-18T16:59:10.003Z,5.88
2022-08-18T17:01:56.302Z,5.28
2022-08-18T17:04:28.888Z,5.82
2022-08-18T17:06:57.021Z,5.50
2022-08-18T17:09:24.567Z,5.40
2022-08-18T17:11:52.440Z,6.38
2022-08-18T17:14:25.611Z,5.70
2022-08-18T17:16:55.233Z,6.15
2022-08-18T17:19:30.018Z,5.45
2022-08-18T17:21:57.602Z,5.65
2022-08-18T17:24:32.176Z,6.75
2022-08-18T17:27:26.142Z,5.93
2022-08-18T17:30:16.158Z,6.30
2022-08-18T17:32:49.466Z,5.75
2022-08-18T17:35:34.874Z,5.97
2022-08-18T17:38:08.881Z,5.68
2022-08-18T17:40:42.914Z,5.75
2022-08-18T17:43:14.923Z,5.65
2022-08-18T17:45:43.627Z,7.00
2022-08-18T17:48:22.341Z,5.70
2022-08-18T17:51:21.139Z,5.90
2022-08-18T17:53:48.230Z,5.15
2022-08-18T17:56:35.167Z,5.93
2022-08-18T17:59:51.164Z,6.40
2022-08-18T18:02:19.041Z,6.78
2022-08-18T18:04:58.700Z,6.90
2022-08-18T18:07:34.107Z,5.75
2022-08-18T18:10:02.677Z,7.60
2022-08-18T18:12:32.424Z,6.40
2022-08-18T18:15:00.802Z,7.28
2022-08-18T18:17:31.198Z,6.55
2022-08-18T18:20:24.502Z,5.88
2022-08-18T18:22:52.307Z,6.15
2022-08-18T18:25:34.689Z,6.25
2022-08-18T18:28:02.441Z,6.78
2022-08-18T18:30:30.021Z,6.00
2022-08-18T18:33:19.658Z,6.22
2022-08-18T18:35:53.993Z,6.75
2022-08-18T18:38:35.574Z,6.53
2022-08-18T18:41:06.865Z,6.82
2022-08-18T18:43:35.462Z,7.13
2022-08-18T18:46:23.514Z,6.22
2022-08-18T18:49:11.834Z,6.35
2022-08-18T18:52:10.454Z,6.32
2022-08-18T18:54:57.247Z,6.45
2022-08-18T19:00:13.462Z,10.05
2022-08-18T19:02:57.811Z,6.95
2022-08-18T19:05:56.852Z,7.57
2022-08-18T19:08:36.126Z,7.65
2022-08-18T19:11:12.105Z,7.32
2022-08-18T19:13:44.247Z,7.05
2022-08-18T19:16:24.371Z,7.28
2022-08-18T19:19:36.967Z,7.68
2022-08-18T19:22:04.270Z,7.07
2022-08-18T19:24:47.781Z,7.30
2022-08-18T19:27:25.520Z,7.07
2022-08-18T19:29:56.516Z,7.55
2022-08-18T19:32:32.570Z,7.60
2022-08-18T19:35:04.252Z,7.43
2022-08-18T19:37:59.017Z,7.40
2022-08-18T19:43:58.849Z,7.72
2022-08-18T19:46:39.641Z,7.18
2022-08-18T19:49:28.826Z,6.78
2022-08-18T19:52:52.595Z,6.97
2022-08-18T19:55:33.022Z,6.70
2022-08-18T19:58:16.731Z,6.90
2022-08-18T20:01:10.267Z,7.13
2022-08-18T20:03:59.137Z,7.18
2022-08-18T20:06:56.845Z,7.45
2022-08-18T20:09:33.389Z,7.68
2022-08-18T20:12:17.510Z,6.47
2022-08-18T20:15:00.670Z,6.57
2022-08-18T20:17:28.387Z,6.50
2022-08-18T20:19:55.326Z,6.70
2022-08-18T20:22:24.477Z,6.43
2022-08-18T20:25:04.653Z,6.85
2022-08-18T20:27:41.923Z,6.88
2022-08-18T20:30:29.834Z,7.70
2022-08-18T20:33:05.719Z,7.00
2022-08-18T20:35:46.816Z,6.65
2022-08-18T20:38:31.345Z,7.25
2022-08-18T20:41:00.067Z,7.03
2022-08-18T20:43:38.232Z,7.03
2022-08-18T20:46:22.485Z,7.45
2022-08-18T20:49:07.908Z,7.10
2022-08-18T20:51:52.164Z,7.68
2022-08-18T20:54:28.383Z,7.20
2022-08-18T20:57:00.358Z,7.00
2022-08-18T20:59:40.182Z,6.90
2022-08-18T21:02:24.384Z,6.32
2022-08-18T21:04:54.186Z,6.85
2022-08-18T21:07:37.314Z,6.55
2022-08-18T21:10:24.450Z,6.53
2022-08-18T21:12:55.072Z,6.50
2022-08-18T21:15:27.474Z,7.28
2022-08-18T21:18:03.004Z,6.55
2022-08-18T21:20:31.637Z,6.47
2022-08-18T21:23:11.039Z,7.38
2022-08-18T21:25:48.755Z,6.60
2022-08-18T21:28:17.598Z,7.28
2022-08-18T21:31:29.089Z,6.05
2022-08-18T21:33:53.756Z,6.43
2022-08-18T21:36:26.466Z,7.35
2022-08-18T21:38:56.788Z,7.68
2022-08-18T21:41:33.678Z,6.88
2022-08-18T21:44:07.093Z,7.10
2022-08-18T21:46:34.724Z,7.13
2022-08-18T21:49:03.855Z,6.50
2022-08-18T21:51:46.183Z,7.20
2022-08-18T21:54:18.218Z,6.72
2022-08-18T21:56:45.397Z,6.95
2022-08-18T21:59:17.087Z,6.22
2022-08-18T22:01:56.482Z,7.00
2022-08-18T22:04:47.548Z,6.35
2022-08-18T22:07:22.010Z,7.18
2022-08-18T22:10:36.958Z,6.95
2022-08-18T22:13:22.642Z,6.50
2022-08-18T22:15:50.862Z,7.63
2022-08-18T22:18:17.950Z,7.47
2022-08-18T22:20:53.049Z,7.80
2022-08-18T22:23:44.980Z,8.02
2022-08-18T22:26:15.123Z,6.95
2022-08-18T22:29:04.899Z,7.22
2022-08-18T22:31:34.060Z,7.25
2022-08-18T22:34:06.429Z,6.88
2022-08-18T22:36:47.144Z,6.53
2022-08-18T22:39:22.766Z,6.05
2022-08-18T22:41:49.804Z,6.20
2022-08-18T22:44:16.930Z,6.90
2022-08-18T22:46:43.926Z,7.18
2022-08-18T22:49:11.444Z,6.80
2022-08-18T22:51:38.602Z,6.45
2022-08-18T22:54:08.520Z,6.70
2022-08-18T22:56:37.957Z,7.00
2022-08-18T22:59:16.108Z,6.50
2022-08-18T23:01:49.118Z,7.20
2022-08-18T23:04:18.775Z,7.00
2022-08-18T23:06:52.545Z,8.32
2022-08-18T23:09:26.514Z,6.53
2022-08-18T23:11:56.584Z,6.97
2022-08-18T23:14:24.392Z,6.47
2022-08-18T23:16:51.635Z,6.80
2022-08-18T23:19:20.525Z,6.47
2022-08-18T23:21:48.801Z,6.63
2022-08-18T23:24:16.902Z,6.32
2022-08-18T23:26:43.963Z,6.55
2022-08-18T23:29:12.758Z,5.97
2022-08-18T23:31:41.789Z,6.28
2022-08-18T23:34:10.111Z,6.00
2022-08-18T23:36:41.270Z,6.70
2022-08-18T23:39:11.527Z,6.13
2022-08-18T23:41:38.985Z,5.78
2022-08-18T23:44:06.728Z,6.45
2022-08-18T23:46:35.315Z,6.45
2022-08-18T23:49:04.714Z,6.53
2022-08-18T23:51:42.733Z,7.45
2022-08-18T23:54:17.216Z,6.97
2022-08-18T23:56:44.834Z,6.80
2022-08-18T23:59:13.712Z,6.32
